Time;durP1;ratioP1;P1;durP2;ratioP2;P2;SDS_P1;SDS_P2;PMS_P1;PMS_P2;Temp;Humidity;BMP_temperature;BMP_pressure;BME280_temperature;BME280_humidity;BME280_pressure;Samples;Min_cycle;Max_cycle;Signal;HPM_P1;HPM_P2
2022/04/12 00:01:38;;;;;;;11.00;6.33;;;;;;;-142.75;100.00;77255.38;5033006;28;20527;-65
2022/04/12 00:04:03;;;;;;;12.50;6.13;;;;;;;-142.75;100.00;77261.28;5031528;28;20272;-66
2022/04/12 00:06:29;;;;;;;13.40;6.28;;;;;;;-142.75;100.00;77263.25;5032996;28;20359;-65
2022/04/12 00:08:54;;;;;;;10.45;6.15;;;;;;;-142.75;100.00;77267.19;5032554;28;20029;-66
2022/04/12 00:11:20;;;;;;;10.70;5.78;;;;;;;-142.75;100.00;77277.03;5032820;28;20483;-66
2022/04/12 00:13:45;;;;;;;9.00;5.63;;;;;;;-142.75;100.00;77282.94;5032394;28;20025;-65
2022/04/12 00:16:10;;;;;;;11.48;6.60;;;;;;;-142.75;100.00;77284.91;5032828;28;20083;-65
2022/04/12 00:21:19;;;;;;;8.77;5.50;;;;;;;-142.75;100.00;77300.66;5032867;28;20107;-66
2022/04/12 00:23:45;;;;;;;9.23;5.80;;;;;;;-142.75;100.00;77300.66;5032630;28;20476;-66
2022/04/12 00:26:10;;;;;;;9.98;5.93;;;;;;;-142.75;100.00;77298.69;5033061;28;20291;-66
2022/04/12 00:28:36;;;;;;;9.57;5.95;;;;;;;-142.75;100.00;77298.69;5030780;28;20033;-65
2022/04/12 00:31:02;;;;;;;9.02;5.30;;;;;;;-142.75;100.00;77302.63;5032616;28;20055;-66
2022/04/12 00:33:28;;;;;;;;;;;;;;;-142.75;100.00;77306.56;5032511;28;20140;-65
2022/04/12 00:35:56;;;;;;;11.23;6.10;;;;;;;-142.75;100.00;77306.56;5032485;28;19921;-66
2022/04/12 00:38:25;;;;;;;10.53;5.80;;;;;;;-142.75;100.00;77300.66;5031877;28;20103;-66
2022/04/12 00:40:50;;;;;;;10.93;5.77;;;;;;;-142.75;100.00;77300.66;5032331;28;20022;-66
2022/04/12 00:43:18;;;;;;;11.60;5.70;;;;;;;-142.75;100.00;77308.53;5030682;28;20017;-65
2022/04/12 00:45:44;;;;;;;11.70;5.83;;;;;;;-142.75;100.00;77310.50;5030642;28;20033;-66
2022/04/12 00:48:10;;;;;;;10.10;6.22;;;;;;;-142.75;100.00;77306.56;5030793;28;20402;-66
2022/04/12 00:50:36;;;;;;;11.33;6.33;;;;;;;-142.75;100.00;77310.50;5030758;28;20018;-65
2022/04/12 00:53:02;;;;;;;;;;;;;;;-142.75;100.00;77304.59;5032509;28;20029;-66
2022/04/12 00:55:29;;;;;;;9.20;6.13;;;;;;;-142.75;100.00;77308.53;5032396;28;19944;-66
2022/04/12 00:57:56;;;;;;;10.07;6.15;;;;;;;-142.75;100.00;77310.50;5031748;28;20025;-65
2022/04/12 01:00:21;;;;;;;10.37;5.53;;;;;;;-142.75;100.00;77308.53;5030619;28;20418;-66
2022/04/12 01:02:46;;;;;;;11.93;5.53;;;;;;;-142.75;100.00;77306.56;5032180;28;20083;-65
2022/04/12 01:05:12;;;;;;;9.02;5.65;;;;;;;-142.75;100.00;77316.41;5030500;28;20059;-65
2022/04/12 01:07:37;;;;;;;8.88;5.65;;;;;;;-142.75;100.00;77322.31;5030347;28;20455;-65
2022/04/12 01:10:04;;;;;;;8.70;5.72;;;;;;;-142.75;100.00;77334.13;5030191;28;20017;-65
2022/04/12 01:12:30;;;;;;;11.73;5.93;;;;;;;-142.75;100.00;77334.13;5031312;28;20026;-64
2022/04/12 01:15:13;;;;;;;10.63;5.97;;;;;;;-142.75;100.00;77332.16;5031608;28;20033;-65
2022/04/12 01:17:38;;;;;;;9.57;5.63;;;;;;;-142.75;100.00;77334.13;5031558;28;20030;-66
2022/04/12 01:20:06;;;;;;;10.05;6.65;;;;;;;-142.75;100.00;77338.06;5031240;28;20026;-65
2022/04/12 01:22:34;;;;;;;9.97;5.53;;;;;;;-142.75;100.00;77343.97;5031460;28;20028;-65
2022/04/12 01:25:00;;;;;;;11.90;5.80;;;;;;;-142.75;100.00;77359.72;5031739;28;20033;-65
2022/04/12 01:27:25;;;;;;;10.13;5.57;;;;;;;-142.75;100.00;77359.72;5031640;28;20471;-65
2022/04/12 01:29:52;;;;;;;8.70;5.67;;;;;;;-142.75;100.00;77361.69;5031034;28;20018;-65
2022/04/12 01:32:17;;;;;;;9.17;6.03;;;;;;;-142.75;100.00;77361.69;5031211;28;20298;-66
2022/04/12 01:34:42;;;;;;;8.27;5.82;;;;;;;-142.75;100.00;77359.72;5031378;28;20487;-65
2022/04/12 01:37:08;;;;;;;11.88;6.18;;;;;;;-142.75;100.00;77369.56;5031256;28;20470;-65
2022/04/12 01:39:33;;;;;;;9.25;5.43;;;;;;;-142.75;100.00;77363.66;5030873;28;20033;-65
2022/04/12 01:41:59;;;;;;;9.18;5.60;;;;;;;-142.75;100.00;77369.56;5031165;28;20029;-65
2022/04/12 01:44:25;;;;;;;8.23;5.27;;;;;;;-142.75;100.00;77369.56;5031163;28;20060;-65
2022/04/12 01:46:50;;;;;;;9.52;5.82;;;;;;;-142.75;100.00;77375.47;5030969;28;20035;-65
2022/04/12 01:49:16;;;;;;;11.85;5.55;;;;;;;-142.75;100.00;77371.53;5030894;28;20018;-65
2022/04/12 01:51:41;;;;;;;;;;;;;;;-142.75;100.00;77385.31;5031211;28;20021;-64
2022/04/12 01:54:06;;;;;;;9.13;5.60;;;;;;;-142.75;100.00;77385.31;5030767;28;20434;-65
2022/04/12 01:56:32;;;;;;;8.17;5.10;;;;;;;-142.75;100.00;77393.19;5030295;28;20028;-65
2022/04/12 01:59:00;;;;;;;8.77;5.30;;;;;;;-142.75;100.00;77391.22;5028741;28;20461;-66
2022/04/12 02:01:25;;;;;;;8.33;5.23;;;;;;;-142.75;100.00;77393.19;5030884;28;20032;-65
2022/04/12 02:03:50;;;;;;;13.45;5.80;;;;;;;-142.75;100.00;77391.22;5029156;28;20014;-66
2022/04/12 02:06:15;;;;;;;8.03;5.20;;;;;;;-142.75;100.00;77391.22;5030756;28;20017;-65
2022/04/12 02:08:41;;;;;;;9.77;5.70;;;;;;;-142.75;100.00;77393.19;5030353;28;20318;-65
2022/04/12 02:11:07;;;;;;;10.67;5.17;;;;;;;-142.75;100.00;77397.13;5030687;28;20279;-65
2022/04/12 02:13:32;;;;;;;11.07;5.40;;;;;;;-142.75;100.00;77416.81;5030105;28;20353;-65
2022/04/12 02:15:57;;;;;;;8.63;5.13;;;;;;;-142.75;100.00;77424.69;5030508;28;20430;-65
2022/04/12 02:18:23;;;;;;;8.40;5.47;;;;;;;-142.75;100.00;77416.81;5030055;28;20033;-64
2022/04/12 02:20:48;;;;;;;9.87;5.63;;;;;;;-142.75;100.00;77420.75;5030457;28;20727;-65
2022/04/12 02:23:13;;;;;;;8.13;5.20;;;;;;;-142.75;100.00;77414.84;5030155;28;20271;-66
2022/04/12 02:25:38;;;;;;;11.00;5.00;;;;;;;-142.75;100.00;77405.00;5031030;28;20399;-65
2022/04/12 02:28:04;;;;;;;7.18;5.00;;;;;;;-142.75;100.00;77401.06;5030134;28;20096;-66
2022/04/12 02:30:29;;;;;;;9.70;5.73;;;;;;;-142.75;100.00;77405.00;5030132;28;20112;-65
2022/04/12 02:32:54;;;;;;;8.30;5.10;;;;;;;-142.75;100.00;77414.84;5030167;28;20348;-64
2022/04/12 02:35:20;;;;;;;8.80;5.13;;;;;;;-142.75;100.00;77420.75;5030232;28;20336;-65
2022/04/12 02:37:45;;;;;;;8.60;5.18;;;;;;;-142.75;100.00;77424.69;5029990;28;20733;-65
2022/04/12 02:40:10;;;;;;;9.63;4.97;;;;;;;-142.75;100.00;77436.50;5029921;28;20071;-65
2022/04/12 02:42:36;;;;;;;9.00;5.18;;;;;;;-142.75;100.00;77432.56;5029952;28;20681;-65
2022/04/12 02:45:01;;;;;;;10.37;5.53;;;;;;;-142.75;100.00;77430.59;5028917;28;20021;-65
2022/04/12 02:47:28;;;;;;;8.00;4.93;;;;;;;-142.75;100.00;77432.56;5030029;28;20271;-64
2022/04/12 02:49:53;;;;;;;11.60;5.23;;;;;;;-142.75;100.00;77432.56;5029934;28;20108;-65
2022/04/12 02:52:19;;;;;;;10.38;5.90;;;;;;;-142.75;100.00;77432.56;5055357;22;20124;-65
2022/04/12 02:54:44;;;;;;;11.38;5.25;;;;;;;-142.75;100.00;77436.50;5050338;28;20032;-64
2022/04/12 02:57:09;;;;;;;9.88;5.60;;;;;;;-142.75;100.00;77438.47;5050173;28;20021;-65
2022/04/12 02:59:34;;;;;;;11.73;5.65;;;;;;;-142.75;100.00;77440.44;5052087;28;20033;-65
2022/04/12 03:02:00;;;;;;;9.07;5.07;;;;;;;-142.75;100.00;77436.50;5052256;28;20021;-65
2022/04/12 03:04:25;;;;;;;6.90;4.80;;;;;;;-142.75;100.00;77436.50;5051551;28;20029;-65
2022/04/12 03:06:50;;;;;;;7.13;4.72;;;;;;;-142.75;100.00;77442.41;5052600;28;20078;-65
2022/04/12 03:09:18;;;;;;;8.50;4.47;;;;;;;-142.75;100.00;77440.44;5052083;28;20027;-65
2022/04/12 03:11:43;;;;;;;8.07;4.80;;;;;;;-142.75;100.00;77448.34;5055903;28;20278;-65
2022/04/12 03:14:08;;;;;;;10.50;5.10;;;;;;;-142.75;100.00;77448.34;5055219;28;20032;-65
2022/04/12 03:16:34;;;;;;;7.82;4.80;;;;;;;-142.75;100.00;77448.34;5056742;28;20358;-65
2022/04/12 03:18:59;;;;;;;7.73;5.13;;;;;;;-142.75;100.00;77450.28;5055377;28;20039;-65
2022/04/12 03:21:24;;;;;;;7.43;4.72;;;;;;;-142.75;100.00;77456.22;5056646;28;20752;-65
2022/04/12 03:23:50;;;;;;;8.80;5.15;;;;;;;-142.75;100.00;77452.25;5057191;28;20103;-65
2022/04/12 03:26:15;;;;;;;9.02;5.05;;;;;;;-142.75;100.00;77460.13;5057436;28;20545;-65
2022/04/12 03:28:40;;;;;;;7.45;4.63;;;;;;;-142.75;100.00;77464.09;5056214;28;20071;-65
2022/04/12 03:31:06;;;;;;;9.50;4.57;;;;;;;-142.75;100.00;77448.34;5056070;28;20017;-65
2022/04/12 03:33:31;;;;;;;8.98;5.13;;;;;;;-142.75;100.00;77456.22;5056480;28;20570;-65
2022/04/12 03:35:56;;;;;;;7.75;4.97;;;;;;;-142.75;100.00;77462.13;5052035;28;20033;-65
2022/04/12 03:38:22;;;;;;;9.02;5.40;;;;;;;-142.75;100.00;77456.22;5045039;28;20029;-65
2022/04/12 03:40:47;;;;;;;10.10;4.47;;;;;;;-142.75;100.00;77458.16;5039655;28;20403;-65
2022/04/12 03:43:13;;;;;;;10.68;5.35;;;;;;;-142.75;100.00;77460.13;5052173;28;20437;-65
2022/04/12 03:45:38;;;;;;;7.00;4.43;;;;;;;-142.75;100.00;77454.25;5056818;28;20441;-65
2022/04/12 03:48:05;;;;;;;7.88;4.55;;;;;;;-142.75;100.00;77456.22;5056736;28;20381;-65
2022/04/12 03:50:31;;;;;;;9.23;4.37;;;;;;;-142.75;100.00;77464.09;5055103;28;20070;-65
2022/04/12 03:52:56;;;;;;;6.88;4.30;;;;;;;-142.75;100.00;77468.03;5054640;28;20445;-64
2022/04/12 03:55:31;;;;;;;9.23;5.28;;;;;;;-142.75;100.00;77471.97;5054949;28;20029;-64
2022/04/12 03:57:58;;;;;;;6.80;4.50;;;;;;;-142.75;100.00;77483.78;5054069;28;20028;-64
2022/04/12 04:00:23;;;;;;;6.93;4.57;;;;;;;-142.75;100.00;77481.81;5054512;28;20390;-64
2022/04/12 04:02:48;;;;;;;7.83;4.30;;;;;;;-142.75;100.00;77479.84;5054021;28;20028;-64
2022/04/12 04:05:14;;;;;;;8.93;4.90;;;;;;;-142.75;100.00;77473.94;5054429;28;20271;-65
2022/04/12 04:07:39;;;;;;;8.57;4.85;;;;;;;-142.75;100.00;77471.97;5053790;28;20024;-65
2022/04/12 04:10:05;;;;;;;7.23;5.10;;;;;;;-142.75;100.00;77475.91;5053508;28;20421;-64
2022/04/12 04:12:30;;;;;;;8.23;4.80;;;;;;;-142.75;100.00;77473.94;5053809;28;20278;-65
2022/04/12 04:14:55;;;;;;;6.53;4.50;;;;;;;-142.75;100.00;77475.91;5052803;28;20552;-65
2022/04/12 04:17:21;;;;;;;8.38;4.55;;;;;;;-142.75;100.00;77471.97;5054213;28;20025;-66
2022/04/12 04:19:46;;;;;;;;;;;;;;;-142.75;100.00;77471.97;5054009;28;20147;-65
2022/04/12 04:22:12;;;;;;;9.23;4.60;;;;;;;-142.75;100.00;77460.13;5053792;28;20317;-65
2022/04/12 04:24:37;;;;;;;6.68;4.47;;;;;;;-142.75;100.00;77452.25;5053716;28;20033;-65
2022/04/12 04:27:05;;;;;;;6.22;4.40;;;;;;;-142.75;100.00;77456.22;5054629;28;20070;-65
2022/04/12 04:29:33;;;;;;;7.07;4.57;;;;;;;-142.75;100.00;77460.13;5041980;28;20112;-64
2022/04/12 04:31:59;;;;;;;11.57;4.83;;;;;;;-142.75;100.00;77483.78;5046698;28;20021;-64
2022/04/12 04:34:24;;;;;;;10.05;4.63;;;;;;;-142.75;100.00;77501.50;5032624;28;20037;-64
2022/04/12 04:36:50;;;;;;;8.82;4.45;;;;;;;-142.75;100.00;77503.47;5043801;28;20021;-64
2022/04/12 04:39:15;;;;;;;7.97;4.50;;;;;;;-142.75;100.00;77495.59;5032410;28;20694;-65
2022/04/12 04:41:41;;;;;;;8.20;5.00;;;;;;;-142.75;100.00;77495.59;5032441;28;20025;-64
2022/04/12 04:44:07;;;;;;;7.38;4.90;;;;;;;-142.75;100.00;77491.66;5032621;28;20104;-64
2022/04/12 04:46:32;;;;;;;7.47;4.83;;;;;;;-142.75;100.00;77493.63;5031464;28;21963;-64
2022/04/12 04:48:58;;;;;;;9.27;5.40;;;;;;;-142.75;100.00;77503.47;5030730;28;20025;-65
2022/04/12 04:51:23;;;;;;;8.17;5.37;;;;;;;-142.75;100.00;77515.28;5045941;28;20342;-65
2022/04/12 04:53:57;;;;;;;8.13;5.37;;;;;;;-142.75;100.00;77521.19;5052439;28;20042;-65
2022/04/12 04:56:22;;;;;;;9.13;5.10;;;;;;;-142.75;100.00;77527.09;5054160;28;20350;-65
2022/04/12 04:58:48;;;;;;;6.47;4.53;;;;;;;-142.75;100.00;77519.22;5052666;28;20089;-65
2022/04/12 05:01:13;;;;;;;7.10;5.13;;;;;;;-142.75;100.00;77519.22;5053831;28;20287;-64
2022/04/12 05:03:38;;;;;;;8.98;5.05;;;;;;;-142.75;100.00;77525.13;5053141;28;20270;-65
2022/04/12 05:06:03;;;;;;;9.43;5.43;;;;;;;-142.75;100.00;77527.09;5053205;28;20032;-64
2022/04/12 05:08:29;;;;;;;8.73;5.13;;;;;;;-142.75;100.00;77523.16;5053205;28;20705;-65
2022/04/12 05:10:54;;;;;;;10.07;5.27;;;;;;;-142.75;100.00;77515.28;5052807;28;20839;-64
2022/04/12 05:13:19;;;;;;;12.65;5.20;;;;;;;-142.75;100.00;77521.19;5045346;28;20026;-65
2022/04/12 05:15:45;;;;;;;8.60;5.53;;;;;;;-142.75;100.00;77515.28;5034357;28;20049;-65
2022/04/12 05:18:10;;;;;;;7.93;5.55;;;;;;;-142.75;100.00;77513.31;5033483;28;20124;-65
2022/04/12 05:20:35;;;;;;;7.43;4.68;;;;;;;-142.75;100.00;77523.16;5034197;28;20067;-65
2022/04/12 05:23:00;;;;;;;11.97;5.37;;;;;;;-142.75;100.00;77525.13;5034548;28;20033;-65
2022/04/12 05:25:26;;;;;;;10.17;6.00;;;;;;;-142.75;100.00;77519.22;5033405;28;20355;-65
2022/04/12 05:27:51;;;;;;;7.90;5.40;;;;;;;-142.75;100.00;77519.22;5032881;28;20728;-65
2022/04/12 05:30:17;;;;;;;15.02;5.32;;;;;;;-142.75;100.00;77527.09;5032369;28;20076;-65
2022/04/12 05:32:43;;;;;;;8.20;5.13;;;;;;;-142.75;100.00;77527.09;5038133;28;20057;-65
2022/04/12 05:35:09;;;;;;;10.60;6.00;;;;;;;-142.75;100.00;77519.22;5038100;28;20037;-65
2022/04/12 05:38:01;;;;;;;9.77;4.93;;;;;;;-142.75;100.00;77499.53;5035968;28;20026;-65
2022/04/12 05:40:27;;;;;;;9.63;5.57;;;;;;;-142.75;100.00;77491.66;5040397;28;20036;-65
2022/04/12 05:42:52;;;;;;;8.60;4.80;;;;;;;-142.75;100.00;77487.72;5054382;28;20027;-66
2022/04/12 05:45:18;;;;;;;10.35;5.00;;;;;;;-142.75;100.00;77464.09;5054819;28;20300;-65
2022/04/12 05:47:51;;;;;;;8.15;4.28;;;;;;;-142.75;100.00;77444.38;5054354;28;20166;-65
2022/04/12 05:50:18;;;;;;;8.77;4.80;;;;;;;-142.75;100.00;77426.66;5054263;28;20024;-66
2022/04/12 05:52:44;;;;;;;7.47;4.80;;;;;;;-142.75;100.00;77422.72;5054189;28;20408;-65
2022/04/12 05:55:11;;;;;;;9.90;4.80;;;;;;;-142.75;100.00;77401.06;5054069;28;20028;-66
2022/04/12 05:57:51;;;;;;;10.80;5.23;;;;;;;-142.75;100.00;77391.22;5053308;28;20395;-66
2022/04/12 06:00:18;;;;;;;10.33;5.60;;;;;;;-142.75;100.00;77365.63;5052537;28;20032;-65
2022/04/12 06:02:44;;;;;;;8.93;4.90;;;;;;;-142.75;100.00;77357.75;5034006;28;20017;-66
2022/04/12 06:05:09;;;;;;;9.38;4.90;;;;;;;-142.75;100.00;77336.09;5031667;28;20513;-66
2022/04/12 06:07:35;;;;;;;9.50;4.80;;;;;;;-142.75;100.00;77316.41;5031233;28;20034;-66
2022/04/12 06:10:01;;;;;;;10.55;5.45;;;;;;;-142.75;100.00;77296.72;5031142;28;20449;-65
2022/04/12 06:12:27;;;;;;;;;;;;;;;-142.75;100.00;77298.69;5032554;28;20022;-66
2022/04/12 06:14:52;;;;;;;10.07;4.90;;;;;;;-142.75;100.00;77286.88;5031819;28;19931;-65
2022/04/12 06:17:18;;;;;;;9.02;5.15;;;;;;;-142.75;100.00;77286.88;5036518;28;20026;-66
2022/04/12 06:19:43;;;;;;;10.75;5.18;;;;;;;-142.75;100.00;77282.94;5032059;28;20498;-65
2022/04/12 06:22:08;;;;;;;6.87;4.20;;;;;;;-142.75;100.00;77279.00;5030410;28;20029;-65
2022/04/12 06:24:33;;;;;;;9.27;5.53;;;;;;;-142.75;100.00;77275.06;5039003;28;20287;-65
2022/04/12 06:26:59;;;;;;;10.00;5.35;;;;;;;-142.75;100.00;77263.25;5029968;28;20187;-65
2022/04/12 06:29:24;;;;;;;11.13;5.75;;;;;;;-142.75;100.00;77245.53;5030290;28;20068;-65
2022/04/12 06:31:49;;;;;;;8.25;5.20;;;;;;;-142.75;100.00;77223.88;5030386;28;20030;-66
2022/04/12 06:34:14;;;;;;;8.80;5.73;;;;;;;-142.75;100.00;77206.16;5029954;28;20033;-65
2022/04/12 06:36:40;;;;;;;9.57;5.50;;;;;;;-142.75;100.00;77184.50;5030391;28;20840;-66
2022/04/12 06:39:05;;;;;;;8.77;4.97;;;;;;;-142.75;100.00;77174.66;5034103;28;20268;-66
2022/04/12 06:41:31;;;;;;;8.25;4.75;;;;;;;-142.75;100.00;77147.09;5028811;28;20831;-66
2022/04/12 06:43:56;;;;;;;8.30;5.03;;;;;;;-142.75;100.00;77137.25;5031601;28;20021;-65
2022/04/12 06:46:21;;;;;;;8.52;5.28;;;;;;;-142.75;100.00;77133.31;5033226;28;20062;-66
2022/04/12 06:48:46;;;;;;;8.87;5.57;;;;;;;-142.75;100.00;77105.75;5029845;28;20060;-64
2022/04/12 06:51:12;;;;;;;7.43;5.07;;;;;;;-142.75;100.00;77074.25;5030216;28;20272;-64
2022/04/12 06:53:37;;;;;;;9.60;4.97;;;;;;;-142.75;100.00;77056.53;5040434;28;20307;-66
2022/04/12 06:56:02;;;;;;;10.43;5.03;;;;;;;-142.75;100.00;77050.63;5030299;28;20483;-66
2022/04/12 06:58:27;;;;;;;9.82;5.18;;;;;;;-142.75;100.00;77023.06;5038077;28;20024;-66
2022/04/12 07:00:53;;;;;;;8.98;6.05;;;;;;;-142.75;100.00;77007.31;5046475;28;20758;-66
2022/04/12 07:03:18;;;;;;;8.75;5.05;;;;;;;-142.75;100.00;77011.25;5049036;28;20526;-64
2022/04/12 07:05:45;;;;;;;9.60;5.13;;;;;;;-142.75;100.00;76989.59;5049177;28;20024;-66
2022/04/12 07:08:12;;;;;;;9.40;5.25;;;;;;;-142.75;100.00;76979.75;5043406;28;20311;-64
2022/04/12 07:10:37;;;;;;;8.00;4.85;;;;;;;-142.75;100.00;76962.03;5031035;28;20025;-64
2022/04/12 07:13:02;;;;;;;8.02;5.38;;;;;;;-142.75;100.00;76944.31;5031061;28;20091;-64
2022/04/12 07:15:28;;;;;;;10.68;5.85;;;;;;;-142.75;100.00;76946.28;5032377;28;20026;-65
2022/04/12 07:17:53;;;;;;;9.15;5.28;;;;;;;-142.75;100.00;76930.53;5030248;28;20033;-63
2022/04/12 07:20:20;;;;;;;9.43;5.22;;;;;;;-142.75;100.00;76918.72;5033757;28;20061;-64
2022/04/12 07:22:45;;;;;;;9.45;5.13;;;;;;;-142.75;100.00;76897.06;5031058;28;20104;-65
2022/04/12 07:25:11;;;;;;;9.10;5.10;;;;;;;-142.75;100.00;76885.25;5031159;28;20505;-66
2022/04/12 07:27:37;;;;;;;11.00;5.22;;;;;;;-142.75;100.00;76853.75;5030934;28;20025;-65
2022/04/12 07:30:06;;;;;;;;;;;;;;;-142.75;100.00;76836.03;5031838;28;20040;-64
2022/04/12 07:32:32;;;;;;;8.88;4.93;;;;;;;-142.75;100.00;76859.66;5033811;28;20481;-64
2022/04/12 07:34:57;;;;;;;9.38;5.43;;;;;;;-142.75;100.00;76867.53;5034281;28;20096;-64
2022/04/12 07:37:22;;;;;;;9.23;4.95;;;;;;;-142.75;100.00;76855.72;5033672;28;20491;-63
2022/04/12 07:39:47;;;;;;;15.48;5.40;;;;;;;-142.75;100.00;76855.72;5050171;28;20036;-65
2022/04/12 07:42:14;;;;;;;6.65;4.55;;;;;;;-142.75;100.00;76839.97;5050687;28;20051;-65
2022/04/12 07:44:39;;;;;;;10.23;5.00;;;;;;;-142.75;100.00;76847.84;5050424;28;20029;-65
2022/04/12 07:47:05;;;;;;;12.02;5.80;;;;;;;-142.75;100.00;76812.41;5042492;28;20025;-65
2022/04/12 07:49:30;;;;;;;10.93;5.15;;;;;;;-142.75;100.00;76786.84;5034448;28;20029;-65
2022/04/12 07:51:55;;;;;;;9.70;5.43;;;;;;;-142.75;100.00;76755.34;5050251;28;20029;-65
2022/04/12 07:54:21;;;;;;;10.68;5.32;;;;;;;-142.75;100.00;76753.38;5048648;28;20473;-65
2022/04/12 07:56:46;;;;;;;9.38;5.50;;;;;;;-142.75;100.00;76771.09;5051867;28;20108;-65
2022/04/12 07:59:11;;;;;;;10.48;4.72;;;;;;;-142.75;100.00;76755.34;5053526;28;20024;-65
2022/04/12 08:01:37;;;;;;;11.25;5.00;;;;;;;-142.75;100.00;76735.66;5053383;28;20397;-65
2022/04/12 08:04:03;;;;;;;10.07;4.70;;;;;;;-142.75;100.00;76727.78;5053271;28;20395;-65
2022/04/12 08:06:28;;;;;;;7.03;4.13;;;;;;;-142.75;100.00;76727.78;5053210;28;20066;-65
2022/04/12 08:08:54;;;;;;;10.35;4.70;;;;;;;-142.75;100.00;76708.09;5052868;28;20033;-65
2022/04/12 08:11:19;;;;;;;7.05;4.28;;;;;;;-142.75;100.00;76692.34;5052985;28;20024;-66
2022/04/12 08:13:45;;;;;;;8.97;5.03;;;;;;;-142.75;100.00;76668.72;5052734;28;20505;-66
2022/04/12 08:16:11;;;;;;;8.52;4.65;;;;;;;-142.75;100.00;76629.34;5051787;28;20906;-66
2022/04/12 08:18:36;;;;;;;10.30;4.78;;;;;;;-142.75;100.00;76597.84;5052031;28;20104;-66
2022/04/12 08:21:02;;;;;;;7.25;4.70;;;;;;;-142.75;100.00;76564.38;5052426;28;20036;-65
2022/04/12 08:23:27;;;;;;;8.30;4.28;;;;;;;-142.75;100.00;76568.31;5052163;28;20113;-66
2022/04/12 08:25:53;;;;;;;10.77;4.65;;;;;;;-142.75;100.00;76554.53;5052377;28;20095;-66
2022/04/12 08:28:19;;;;;;;;;;;;;;;-142.75;100.00;76530.91;5052491;28;20025;-65
2022/04/12 08:30:44;;;;;;;8.20;4.63;;;;;;;-142.75;100.00;76532.88;5052410;28;19913;-66
2022/04/12 08:33:09;;;;;;;;;;;;;;;-142.75;100.00;76491.56;5052200;28;20060;-66
2022/04/12 08:35:35;;;;;;;9.95;5.13;;;;;;;-142.75;100.00;76465.97;5052046;28;19918;-65
2022/04/12 08:38:01;;;;;;;8.13;4.43;;;;;;;-142.75;100.00;76440.38;5051992;28;20036;-65
2022/04/12 08:40:26;;;;;;;7.18;3.95;;;;;;;-142.75;100.00;76401.00;5052228;28;20083;-66
2022/04/12 08:42:53;;;;;;;8.18;4.60;;;;;;;-142.75;100.00;76379.34;5051787;28;20021;-66
2022/04/12 08:45:19;;;;;;;8.15;4.30;;;;;;;-142.75;100.00;76365.56;5051907;28;20120;-66
2022/04/12 08:47:44;;;;;;;7.72;4.55;;;;;;;-142.75;100.00;76357.69;5051853;28;20112;-66
2022/04/12 08:50:10;;;;;;;;;;;;;;;-142.75;97.33;76304.56;5051827;28;20025;-66
2022/04/12 08:52:36;;;;;;;8.70;4.30;;;;;;;-142.75;96.79;76251.41;5051509;28;19927;-66
2022/04/12 08:55:03;;;;;;;7.18;4.28;;;;;;;-142.75;95.83;76245.50;5051574;28;20028;-66
2022/04/12 08:57:29;;;;;;;8.80;3.92;;;;;;;-142.75;93.51;76225.81;5051865;28;20152;-66
2022/04/12 08:59:54;;;;;;;8.45;3.90;;;;;;;-142.75;89.78;76235.66;5051198;28;20147;-67
2022/04/12 09:02:19;;;;;;;;;;;;;;;-142.75;92.95;76225.81;5052039;28;20044;-66
2022/04/12 09:04:45;;;;;;;8.02;3.53;;;;;;;-142.75;88.83;76215.97;5051204;28;19919;-66
2022/04/12 09:07:11;;;;;;;;;;;;;;;-142.75;86.75;76210.06;5051416;28;20094;-66
2022/04/12 09:09:39;;;;;;;8.57;3.72;;;;;;;-142.75;87.76;76208.09;5050777;28;19919;-66
2022/04/12 09:12:09;;;;;;;8.30;3.58;;;;;;;-142.75;87.55;76212.03;5051337;28;20074;-65
2022/04/12 09:14:40;;;;;;;7.88;3.88;;;;;;;-142.75;89.52;76162.84;5051872;28;20027;-65
2022/04/12 09:17:10;;;;;;;11.68;4.10;;;;;;;-142.75;86.35;76145.13;5052079;28;20025;-65
2022/04/12 09:19:49;;;;;;;8.43;3.70;;;;;;;-142.75;87.39;76168.75;5050954;28;20478;-66
2022/04/12 09:22:17;;;;;;;11.02;3.90;;;;;;;-142.75;84.54;76156.94;5051382;28;20025;-65
2022/04/12 09:24:45;;;;;;;11.00;3.78;;;;;;;-142.75;90.23;76117.56;5050242;28;20025;-66
2022/04/12 09:27:14;;;;;;;11.38;4.28;;;;;;;-142.75;85.79;76097.88;5050989;28;20116;-66
2022/04/12 09:29:48;;;;;;;8.57;4.05;;;;;;;-142.75;88.12;76074.25;5051115;28;20029;-66
2022/04/12 09:32:15;;;;;;;6.50;4.10;;;;;;;-142.75;86.05;76058.53;5050857;28;20037;-66
2022/04/12 09:34:41;;;;;;;6.78;3.88;;;;;;;-142.75;84.97;76046.72;5051063;28;20025;-66
2022/04/12 09:37:29;;;;;;;10.65;4.20;;;;;;;-142.75;83.02;76054.59;5051171;28;20051;-66
2022/04/12 09:40:01;;;;;;;8.00;4.70;;;;;;;-142.75;88.28;76023.09;5050642;28;20029;-66
2022/04/12 09:42:58;;;;;;;6.18;4.60;;;;;;;-142.75;81.81;76007.34;5050893;28;20017;-66
2022/04/12 09:45:32;;;;;;;7.20;4.28;;;;;;;-142.75;81.06;76019.16;5038244;28;20099;-66
2022/04/12 09:48:02;;;;;;;5.82;3.92;;;;;;;-142.75;85.62;76011.28;5050247;28;20395;-66
2022/04/12 09:50:29;;;;;;;8.57;4.22;;;;;;;-142.75;87.55;75997.50;5049629;28;20033;-66
2022/04/12 09:52:59;;;;;;;5.97;3.63;;;;;;;-142.75;84.72;75975.84;5050379;28;20041;-66
2022/04/12 09:55:45;;;;;;;7.50;4.00;;;;;;;-142.75;79.41;75983.72;5050675;28;20029;-66
2022/04/12 09:58:16;;;;;;;6.43;3.88;;;;;;;-142.75;80.54;75960.13;5050205;28;20044;-66
2022/04/12 10:00:47;;;;;;;8.32;3.90;;;;;;;-142.75;79.81;75938.47;5050458;28;20032;-66
2022/04/12 10:03:15;;;;;;;6.72;4.13;;;;;;;-142.75;81.21;75938.47;5050465;28;20050;-66
2022/04/12 10:05:42;;;;;;;7.63;3.95;;;;;;;-142.75;79.15;75934.53;5050549;28;20110;-66
2022/04/12 10:08:14;;;;;;;11.48;3.97;;;;;;;-142.75;79.90;75964.03;5048301;28;20403;-66
2022/04/12 10:10:43;;;;;;;8.57;3.80;;;;;;;-142.75;81.13;75944.38;5050472;28;20029;-66
2022/04/12 10:13:10;;;;;;;9.32;3.78;;;;;;;-142.75;81.79;75979.78;5051023;28;20367;-66
2022/04/12 10:15:37;;;;;;;9.98;4.30;;;;;;;-142.75;85.77;76023.09;5050256;28;20085;-67
2022/04/12 10:18:02;;;;;;;7.03;4.10;;;;;;;-142.75;85.28;76027.03;5049946;28;20028;-66
2022/04/12 10:20:28;;;;;;;7.53;4.50;;;;;;;-142.75;91.72;76050.66;5049999;28;20048;-66
2022/04/12 10:22:54;;;;;;;;;;;;;;;-142.75;92.13;76074.25;5050546;28;20108;-66
2022/04/12 10:25:21;;;;;;;6.60;4.00;;;;;;;-142.75;94.47;76095.91;5049211;28;19978;-66
2022/04/12 10:27:48;;;;;;;8.45;3.97;;;;;;;-142.75;92.76;76117.56;5043779;28;20029;-67
2022/04/12 10:30:21;;;;;;;9.52;4.78;;;;;;;-142.75;96.74;76121.50;5033125;28;20029;-66
2022/04/12 10:33:03;;;;;;;8.00;3.95;;;;;;;-142.75;99.89;76125.44;5049227;28;20048;-67
2022/04/12 10:35:42;;;;;;;12.32;4.30;;;;;;;-142.75;100.00;76129.38;5050122;28;20028;-67
2022/04/12 10:38:15;;;;;;;9.95;4.00;;;;;;;-142.75;99.83;76141.19;5049602;28;20081;-66
2022/04/12 10:40:51;;;;;;;7.00;4.05;;;;;;;-142.75;98.16;76137.25;5049756;28;20079;-66
2022/04/12 10:43:33;;;;;;;6.68;3.40;;;;;;;-142.75;98.41;76117.56;5049795;28;20072;-66
2022/04/12 10:46:01;;;;;;;9.65;3.90;;;;;;;-142.75;99.59;76097.88;5049797;28;20037;-66
2022/04/12 10:48:31;;;;;;;9.93;4.10;;;;;;;-142.75;99.79;76091.97;5049441;28;20086;-66
2022/04/12 10:51:00;;;;;;;8.73;4.03;;;;;;;-142.75;100.00;76070.34;5049897;28;20094;-66
2022/04/12 10:53:38;;;;;;;8.25;3.45;;;;;;;-142.75;97.52;76042.78;5049461;28;20014;-66
2022/04/12 10:56:14;;;;;;;8.18;3.67;;;;;;;-142.75;96.89;76042.78;5049527;28;20033;-66
2022/04/12 10:58:40;;;;;;;;;;;;;;;-142.75;97.46;76050.66;5049917;28;20031;-66
2022/04/12 11:01:10;;;;;;;7.22;3.33;;;;;;;-142.75;98.18;76058.53;5049717;28;20380;-67
2022/04/12 11:03:41;;;;;;;7.82;3.45;;;;;;;-142.75;97.84;76066.41;5049569;28;20029;-66
2022/04/12 11:06:10;;;;;;;6.10;3.63;;;;;;;-142.75;95.62;76054.59;5042269;28;20045;-66
2022/04/12 11:08:35;;;;;;;9.30;4.15;;;;;;;-142.75;95.90;76029.00;5049874;22;20495;-68
2022/04/12 11:11:00;;;;;;;12.43;3.90;;;;;;;-142.75;95.41;76017.19;5029692;28;20091;-68
2022/04/12 11:13:29;;;;;;;;;;;;;;;-142.75;94.58;75966.00;5031020;28;20037;-68